This is the latest recevied weather packets stored in our database for station/object W2JGA. If no packets are shown the sender has not sent any weather packets the latest 1 day(s).
| Time | Temp. | Humidity | Pressure | Rain* | Wind** | Luminosity | Snow |
|---|---|---|---|---|---|---|---|
| 1778077644 | 15.56° C | 62% | 1019 hPa | 0 mm | - | 105 W/m² | - |
| 1778074009 | 13.89° C | 67% | 1018.7 hPa | 0 mm | - | 30 W/m² | - |
| 1778072796 | 12.78° C | 70% | 1018.3 hPa | 0 mm | - | 20 W/m² | - |
| 1778071889 | 11.67° C | 74% | 1018.3 hPa | 0 mm | - | 11 W/m² | - |
| 1778071587 | 11.67° C | 74% | 1018.3 hPa | 0 mm | - | 8 W/m² | - |
| 1778070982 | 11.67° C | 74% | 1018.3 hPa | 0 mm | - | 2 W/m² | - |
| 1778068863 | 12.22° C | 72% | 1017.9 hPa | 0 mm | - | 0 W/m² | - |
| 1778066443 | 12.78° C | 73% | 1017.6 hPa | 0 mm | - | 0 W/m² | - |
| 1778066141 | 12.78° C | 73% | 1017.6 hPa | 0 mm | - | 0 W/m² | - |
| 1778065838 | 12.78° C | 73% | 1017.6 hPa | 0 mm | - | 0 W/m² | - |
| 1778065233 | 12.78° C | 73% | 1017.2 hPa | 0 mm | - | 0 W/m² | - |
| 1778064022 | 12.78° C | 75% | 1017.6 hPa | 0 mm | - | 0 W/m² | - |
| 1778063719 | 12.78° C | 75% | 1017.2 hPa | 0 mm | - | 0 W/m² | - |
| 1778063114 | 13.33° C | 74% | 1017.2 hPa | 0 mm | - | 0 W/m² | - |
| 1778062811 | 13.33° C | 73% | 1017.2 hPa | 0 mm | - | 0 W/m² | - |
| 1778060693 | 13.89° C | 71% | 1016.8 hPa | 0 mm | - | 0 W/m² | - |
| 1778060390 | 13.89° C | 70% | 1016.8 hPa | 0 mm | - | 0 W/m² | - |
| 1778059786 | 13.89° C | 68% | 1016.8 hPa | 0 mm | - | 0 W/m² | - |
| 1778059484 | 14.44° C | 69% | 1017.2 hPa | 0 mm | - | 0 W/m² | - |
| 1778059180 | 14.44° C | 68% | 1017.2 hPa | 0 mm | - | 0 W/m² | - |
| 1778058575 | 15° C | 66% | 1016.8 hPa | 0 mm | - | 0 W/m² | - |
| 1778058273 | 15° C | 66% | 1016.8 hPa | 0 mm | - | 0 W/m² | - |
| 1778057666 | 15° C | 66% | 1017.2 hPa | 0 mm | - | 0 W/m² | - |
| 1778057060 | 15° C | 69% | 1017.2 hPa | 0 mm | - | 0 W/m² | - |
| 1778055847 | 15.56° C | 67% | 1017.2 hPa | 0 mm | - | 0 W/m² | - |
* Rain latest hour (hover to see other rain measurements)
** Current wind speed in m/s (hover to see current wind gust speed)